sensor_id;sensor_type;location;lat;lon;timestamp;P1;durP1;ratioP1;P2;durP2;ratioP2
60867;SDS011;46702;48.370;10.794;2023-12-07T00:01:28;8.77;;;6.28;;
60867;SDS011;46702;48.370;10.794;2023-12-07T00:03:54;11.70;;;6.47;;
60867;SDS011;46702;48.370;10.794;2023-12-07T00:06:19;10.15;;;7.25;;
60867;SDS011;46702;48.370;10.794;2023-12-07T00:08:45;10.40;;;6.88;;
60867;SDS011;46702;48.370;10.794;2023-12-07T00:11:11;10.77;;;6.38;;
60867;SDS011;46702;48.370;10.794;2023-12-07T00:13:36;11.70;;;7.13;;
60867;SDS011;46702;48.370;10.794;2023-12-07T00:16:02;9.75;;;6.47;;
60867;SDS011;46702;48.370;10.794;2023-12-07T00:18:28;10.25;;;6.10;;
60867;SDS011;46702;48.370;10.794;2023-12-07T00:20:53;10.70;;;6.68;;
60867;SDS011;46702;48.370;10.794;2023-12-07T00:23:19;11.27;;;6.45;;
60867;SDS011;46702;48.370;10.794;2023-12-07T00:25:45;9.55;;;6.40;;
60867;SDS011;46702;48.370;10.794;2023-12-07T00:28:11;10.05;;;6.25;;
60867;SDS011;46702;48.370;10.794;2023-12-07T00:30:36;9.50;;;6.32;;
60867;SDS011;46702;48.370;10.794;2023-12-07T00:33:02;11.35;;;6.55;;
60867;SDS011;46702;48.370;10.794;2023-12-07T00:35:28;10.73;;;6.63;;
60867;SDS011;46702;48.370;10.794;2023-12-07T00:37:54;8.43;;;5.50;;
60867;SDS011;46702;48.370;10.794;2023-12-07T00:40:21;10.07;;;6.32;;
60867;SDS011;46702;48.370;10.794;2023-12-07T00:42:47;8.80;;;6.82;;
60867;SDS011;46702;48.370;10.794;2023-12-07T00:45:13;11.68;;;6.22;;
60867;SDS011;46702;48.370;10.794;2023-12-07T00:47:39;12.57;;;7.57;;
60867;SDS011;46702;48.370;10.794;2023-12-07T00:50:05;10.20;;;6.70;;
60867;SDS011;46702;48.370;10.794;2023-12-07T00:52:32;12.75;;;7.57;;
60867;SDS011;46702;48.370;10.794;2023-12-07T00:54:57;11.00;;;7.13;;
60867;SDS011;46702;48.370;10.794;2023-12-07T00:57:23;11.38;;;6.88;;
60867;SDS011;46702;48.370;10.794;2023-12-07T00:59:49;11.25;;;7.13;;
60867;SDS011;46702;48.370;10.794;2023-12-07T01:02:14;10.27;;;6.85;;
60867;SDS011;46702;48.370;10.794;2023-12-07T01:04:40;10.18;;;7.10;;
60867;SDS011;46702;48.370;10.794;2023-12-07T01:07:06;10.98;;;7.07;;
60867;SDS011;46702;48.370;10.794;2023-12-07T01:09:31;10.48;;;6.30;;
60867;SDS011;46702;48.370;10.794;2023-12-07T01:11:58;7.80;;;5.43;;
60867;SDS011;46702;48.370;10.794;2023-12-07T01:14:24;7.97;;;5.85;;
60867;SDS011;46702;48.370;10.794;2023-12-07T01:16:50;8.88;;;5.80;;
60867;SDS011;46702;48.370;10.794;2023-12-07T01:19:15;9.38;;;6.28;;
60867;SDS011;46702;48.370;10.794;2023-12-07T01:21:41;9.48;;;6.55;;
60867;SDS011;46702;48.370;10.794;2023-12-07T01:24:07;10.15;;;5.10;;
60867;SDS011;46702;48.370;10.794;2023-12-07T01:26:33;8.23;;;6.07;;
60867;SDS011;46702;48.370;10.794;2023-12-07T01:28:59;8.25;;;5.70;;
60867;SDS011;46702;48.370;10.794;2023-12-07T01:31:25;8.63;;;6.43;;
60867;SDS011;46702;48.370;10.794;2023-12-07T01:33:51;10.77;;;6.43;;
60867;SDS011;46702;48.370;10.794;2023-12-07T01:36:16;10.02;;;6.30;;
60867;SDS011;46702;48.370;10.794;2023-12-07T01:38:43;9.77;;;6.15;;
60867;SDS011;46702;48.370;10.794;2023-12-07T01:41:09;10.07;;;6.13;;
60867;SDS011;46702;48.370;10.794;2023-12-07T01:43:35;10.45;;;7.70;;
60867;SDS011;46702;48.370;10.794;2023-12-07T01:46:01;11.23;;;6.43;;
60867;SDS011;46702;48.370;10.794;2023-12-07T01:48:28;10.23;;;6.97;;
60867;SDS011;46702;48.370;10.794;2023-12-07T01:50:55;10.98;;;7.25;;
60867;SDS011;46702;48.370;10.794;2023-12-07T01:53:23;8.95;;;6.25;;
60867;SDS011;46702;48.370;10.794;2023-12-07T01:55:50;10.43;;;6.72;;
60867;SDS011;46702;48.370;10.794;2023-12-07T01:58:17;9.10;;;6.63;;
60867;SDS011;46702;48.370;10.794;2023-12-07T02:00:44;8.38;;;5.63;;
60867;SDS011;46702;48.370;10.794;2023-12-07T02:03:11;10.00;;;6.07;;
60867;SDS011;46702;48.370;10.794;2023-12-07T02:05:37;10.10;;;6.90;;
60867;SDS011;46702;48.370;10.794;2023-12-07T02:08:08;10.95;;;7.03;;
60867;SDS011;46702;48.370;10.794;2023-12-07T02:10:34;9.20;;;6.45;;
60867;SDS011;46702;48.370;10.794;2023-12-07T02:13:00;12.18;;;7.28;;
60867;SDS011;46702;48.370;10.794;2023-12-07T02:15:26;8.18;;;5.10;;
60867;SDS011;46702;48.370;10.794;2023-12-07T02:18:02;13.13;;;8.15;;
60867;SDS011;46702;48.370;10.794;2023-12-07T02:23:44;10.05;;;5.30;;
60867;SDS011;46702;48.370;10.794;2023-12-07T02:26:12;11.43;;;6.97;;
60867;SDS011;46702;48.370;10.794;2023-12-07T02:28:43;8.43;;;5.90;;
60867;SDS011;46702;48.370;10.794;2023-12-07T02:31:09;10.45;;;7.30;;
60867;SDS011;46702;48.370;10.794;2023-12-07T02:33:34;11.02;;;6.25;;
60867;SDS011;46702;48.370;10.794;2023-12-07T02:36:00;8.82;;;5.70;;
60867;SDS011;46702;48.370;10.794;2023-12-07T02:38:26;9.95;;;6.18;;
60867;SDS011;46702;48.370;10.794;2023-12-07T02:40:54;10.48;;;5.57;;
60867;SDS011;46702;48.370;10.794;2023-12-07T02:43:21;12.50;;;7.03;;
60867;SDS011;46702;48.370;10.794;2023-12-07T02:45:47;8.80;;;5.60;;
60867;SDS011;46702;48.370;10.794;2023-12-07T02:48:13;7.60;;;5.75;;
60867;SDS011;46702;48.370;10.794;2023-12-07T02:50:39;12.80;;;6.20;;
60867;SDS011;46702;48.370;10.794;2023-12-07T02:53:05;7.20;;;5.65;;
60867;SDS011;46702;48.370;10.794;2023-12-07T02:55:30;10.25;;;6.47;;
60867;SDS011;46702;48.370;10.794;2023-12-07T02:57:56;10.77;;;6.05;;
60867;SDS011;46702;48.370;10.794;2023-12-07T03:00:23;11.90;;;5.82;;
60867;SDS011;46702;48.370;10.794;2023-12-07T03:02:49;9.45;;;6.68;;
60867;SDS011;46702;48.370;10.794;2023-12-07T03:05:16;8.73;;;5.70;;
60867;SDS011;46702;48.370;10.794;2023-12-07T03:07:44;8.52;;;6.03;;
60867;SDS011;46702;48.370;10.794;2023-12-07T03:10:10;8.52;;;5.20;;
60867;SDS011;46702;48.370;10.794;2023-12-07T03:12:36;9.13;;;5.95;;
60867;SDS011;46702;48.370;10.794;2023-12-07T03:15:01;10.82;;;6.90;;
60867;SDS011;46702;48.370;10.794;2023-12-07T03:17:27;9.68;;;5.63;;
60867;SDS011;46702;48.370;10.794;2023-12-07T03:19:53;11.95;;;7.32;;
60867;SDS011;46702;48.370;10.794;2023-12-07T03:22:19;9.43;;;6.45;;
60867;SDS011;46702;48.370;10.794;2023-12-07T03:24:48;11.00;;;7.60;;
60867;SDS011;46702;48.370;10.794;2023-12-07T03:27:16;9.80;;;6.75;;
60867;SDS011;46702;48.370;10.794;2023-12-07T03:29:41;9.55;;;6.75;;
60867;SDS011;46702;48.370;10.794;2023-12-07T03:32:07;8.90;;;6.10;;
60867;SDS011;46702;48.370;10.794;2023-12-07T03:34:33;8.82;;;6.10;;
60867;SDS011;46702;48.370;10.794;2023-12-07T03:36:58;12.10;;;7.72;;
60867;SDS011;46702;48.370;10.794;2023-12-07T03:39:24;8.55;;;6.53;;
60867;SDS011;46702;48.370;10.794;2023-12-07T03:41:51;9.02;;;5.20;;
60867;SDS011;46702;48.370;10.794;2023-12-07T03:44:17;9.27;;;6.82;;
60867;SDS011;46702;48.370;10.794;2023-12-07T03:46:42;8.02;;;5.68;;
60867;SDS011;46702;48.370;10.794;2023-12-07T03:49:08;11.45;;;6.20;;
60867;SDS011;46702;48.370;10.794;2023-12-07T03:51:34;10.02;;;6.15;;
60867;SDS011;46702;48.370;10.794;2023-12-07T03:54:01;11.57;;;6.68;;
60867;SDS011;46702;48.370;10.794;2023-12-07T03:56:28;9.57;;;5.45;;
60867;SDS011;46702;48.370;10.794;2023-12-07T03:58:55;8.35;;;5.63;;
60867;SDS011;46702;48.370;10.794;2023-12-07T04:01:22;9.35;;;5.53;;
60867;SDS011;46702;48.370;10.794;2023-12-07T04:03:52;12.00;;;5.78;;
60867;SDS011;46702;48.370;10.794;2023-12-07T04:06:19;7.28;;;5.43;;
60867;SDS011;46702;48.370;10.794;2023-12-07T04:08:46;11.30;;;6.05;;
60867;SDS011;46702;48.370;10.794;2023-12-07T04:11:11;9.68;;;6.35;;
60867;SDS011;46702;48.370;10.794;2023-12-07T04:13:38;8.70;;;6.35;;
60867;SDS011;46702;48.370;10.794;2023-12-07T04:16:04;6.90;;;5.53;;
60867;SDS011;46702;48.370;10.794;2023-12-07T04:18:30;9.90;;;6.22;;
60867;SDS011;46702;48.370;10.794;2023-12-07T04:20:55;11.13;;;6.05;;
60867;SDS011;46702;48.370;10.794;2023-12-07T04:23:21;8.05;;;6.10;;
60867;SDS011;46702;48.370;10.794;2023-12-07T04:25:47;11.13;;;5.68;;
60867;SDS011;46702;48.370;10.794;2023-12-07T04:28:12;7.90;;;5.07;;
60867;SDS011;46702;48.370;10.794;2023-12-07T04:30:38;5.50;;;4.03;;
60867;SDS011;46702;48.370;10.794;2023-12-07T04:33:04;8.32;;;5.07;;
60867;SDS011;46702;48.370;10.794;2023-12-07T04:35:30;6.57;;;4.55;;
60867;SDS011;46702;48.370;10.794;2023-12-07T04:37:55;7.93;;;4.63;;
60867;SDS011;46702;48.370;10.794;2023-12-07T04:40:21;9.43;;;5.55;;
60867;SDS011;46702;48.370;10.794;2023-12-07T04:42:47;9.45;;;5.43;;
60867;SDS011;46702;48.370;10.794;2023-12-07T04:45:12;6.13;;;5.15;;
60867;SDS011;46702;48.370;10.794;2023-12-07T04:47:41;9.02;;;5.88;;
60867;SDS011;46702;48.370;10.794;2023-12-07T04:52:32;9.77;;;6.13;;
60867;SDS011;46702;48.370;10.794;2023-12-07T04:54:59;5.95;;;4.53;;
60867;SDS011;46702;48.370;10.794;2023-12-07T04:57:24;8.15;;;5.07;;
60867;SDS011;46702;48.370;10.794;2023-12-07T04:59:50;5.57;;;5.03;;
60867;SDS011;46702;48.370;10.794;2023-12-07T05:02:16;8.50;;;5.95;;
60867;SDS011;46702;48.370;10.794;2023-12-07T05:04:42;6.70;;;5.15;;
60867;SDS011;46702;48.370;10.794;2023-12-07T05:07:10;8.95;;;4.90;;
60867;SDS011;46702;48.370;10.794;2023-12-07T05:09:39;4.30;;;3.85;;
60867;SDS011;46702;48.370;10.794;2023-12-07T05:12:05;5.35;;;3.85;;
60867;SDS011;46702;48.370;10.794;2023-12-07T05:14:32;6.03;;;4.50;;
60867;SDS011;46702;48.370;10.794;2023-12-07T05:16:57;7.20;;;4.45;;
60867;SDS011;46702;48.370;10.794;2023-12-07T05:19:23;6.07;;;4.65;;
60867;SDS011;46702;48.370;10.794;2023-12-07T05:21:50;6.53;;;4.40;;
60867;SDS011;46702;48.370;10.794;2023-12-07T05:24:16;3.40;;;3.10;;
60867;SDS011;46702;48.370;10.794;2023-12-07T05:26:42;24.90;;;4.25;;
60867;SDS011;46702;48.370;10.794;2023-12-07T05:29:12;9.48;;;4.53;;
60867;SDS011;46702;48.370;10.794;2023-12-07T05:31:38;4.82;;;4.00;;
60867;SDS011;46702;48.370;10.794;2023-12-07T05:34:04;5.55;;;4.07;;
60867;SDS011;46702;48.370;10.794;2023-12-07T05:36:30;4.30;;;3.47;;
60867;SDS011;46702;48.370;10.794;2023-12-07T05:38:56;7.13;;;4.85;;
60867;SDS011;46702;48.370;10.794;2023-12-07T05:41:22;4.97;;;4.55;;
60867;SDS011;46702;48.370;10.794;2023-12-07T05:43:47;21.67;;;8.40;;
60867;SDS011;46702;48.370;10.794;2023-12-07T05:46:13;4.35;;;3.92;;
60867;SDS011;46702;48.370;10.794;2023-12-07T05:48:39;4.63;;;3.65;;
60867;SDS011;46702;48.370;10.794;2023-12-07T05:51:12;4.38;;;3.95;;
60867;SDS011;46702;48.370;10.794;2023-12-07T05:53:44;5.15;;;4.05;;
60867;SDS011;46702;48.370;10.794;2023-12-07T05:58:36;4.25;;;3.60;;
60867;SDS011;46702;48.370;10.794;2023-12-07T06:01:02;5.90;;;4.80;;
60867;SDS011;46702;48.370;10.794;2023-12-07T06:03:28;5.22;;;4.05;;
60867;SDS011;46702;48.370;10.794;2023-12-07T06:05:54;7.43;;;5.68;;
60867;SDS011;46702;48.370;10.794;2023-12-07T06:08:20;5.13;;;3.63;;
60867;SDS011;46702;48.370;10.794;2023-12-07T06:10:46;5.18;;;4.53;;
60867;SDS011;46702;48.370;10.794;2023-12-07T06:13:12;7.28;;;5.15;;
60867;SDS011;46702;48.370;10.794;2023-12-07T06:15:38;9.63;;;4.63;;
60867;SDS011;46702;48.370;10.794;2023-12-07T06:18:05;5.97;;;4.40;;
60867;SDS011;46702;48.370;10.794;2023-12-07T06:20:31;5.25;;;4.72;;
60867;SDS011;46702;48.370;10.794;2023-12-07T06:22:57;3.92;;;3.50;;
60867;SDS011;46702;48.370;10.794;2023-12-07T06:25:23;3.60;;;3.00;;
60867;SDS011;46702;48.370;10.794;2023-12-07T06:27:49;7.25;;;5.10;;
60867;SDS011;46702;48.370;10.794;2023-12-07T06:30:14;3.72;;;3.30;;
60867;SDS011;46702;48.370;10.794;2023-12-07T06:32:40;8.55;;;5.05;;
60867;SDS011;46702;48.370;10.794;2023-12-07T06:35:06;5.45;;;4.60;;
60867;SDS011;46702;48.370;10.794;2023-12-07T06:37:32;9.35;;;5.68;;
60867;SDS011;46702;48.370;10.794;2023-12-07T06:39:58;6.20;;;5.10;;
60867;SDS011;46702;48.370;10.794;2023-12-07T06:42:25;4.90;;;4.47;;
60867;SDS011;46702;48.370;10.794;2023-12-07T06:44:53;7.18;;;5.07;;
60867;SDS011;46702;48.370;10.794;2023-12-07T06:47:19;7.43;;;5.18;;
60867;SDS011;46702;48.370;10.794;2023-12-07T06:49:44;7.15;;;5.28;;
60867;SDS011;46702;48.370;10.794;2023-12-07T06:52:11;5.60;;;4.13;;
60867;SDS011;46702;48.370;10.794;2023-12-07T06:54:37;6.75;;;4.88;;
60867;SDS011;46702;48.370;10.794;2023-12-07T06:57:04;6.95;;;5.57;;
60867;SDS011;46702;48.370;10.794;2023-12-07T06:59:32;7.78;;;5.72;;
60867;SDS011;46702;48.370;10.794;2023-12-07T07:02:01;5.20;;;4.70;;
60867;SDS011;46702;48.370;10.794;2023-12-07T07:04:27;3.10;;;2.75;;
60867;SDS011;46702;48.370;10.794;2023-12-07T07:06:52;6.95;;;4.90;;
60867;SDS011;46702;48.370;10.794;2023-12-07T07:09:18;6.40;;;4.47;;
60867;SDS011;46702;48.370;10.794;2023-12-07T07:11:49;5.55;;;4.65;;
60867;SDS011;46702;48.370;10.794;2023-12-07T07:16:41;8.45;;;5.60;;
60867;SDS011;46702;48.370;10.794;2023-12-07T07:19:07;7.15;;;5.28;;
60867;SDS011;46702;48.370;10.794;2023-12-07T07:21:33;6.32;;;5.72;;
60867;SDS011;46702;48.370;10.794;2023-12-07T07:23:59;7.43;;;4.80;;
60867;SDS011;46702;48.370;10.794;2023-12-07T07:26:25;6.80;;;4.82;;
60867;SDS011;46702;48.370;10.794;2023-12-07T07:28:52;7.43;;;5.85;;
60867;SDS011;46702;48.370;10.794;2023-12-07T07:31:17;7.22;;;5.32;;
60867;SDS011;46702;48.370;10.794;2023-12-07T07:33:43;10.45;;;5.28;;
60867;SDS011;46702;48.370;10.794;2023-12-07T07:36:10;7.28;;;5.53;;
60867;SDS011;46702;48.370;10.794;2023-12-07T07:38:37;13.27;;;6.45;;
60867;SDS011;46702;48.370;10.794;2023-12-07T07:41:03;9.63;;;6.25;;
60867;SDS011;46702;48.370;10.794;2023-12-07T07:43:29;8.48;;;6.10;;
60867;SDS011;46702;48.370;10.794;2023-12-07T07:45:55;7.57;;;4.88;;
60867;SDS011;46702;48.370;10.794;2023-12-07T07:48:21;9.50;;;5.28;;
60867;SDS011;46702;48.370;10.794;2023-12-07T07:50:47;7.07;;;5.65;;
60867;SDS011;46702;48.370;10.794;2023-12-07T07:53:15;5.22;;;4.30;;
60867;SDS011;46702;48.370;10.794;2023-12-07T07:55:41;8.80;;;6.15;;
60867;SDS011;46702;48.370;10.794;2023-12-07T07:58:07;7.05;;;6.15;;
60867;SDS011;46702;48.370;10.794;2023-12-07T08:00:33;8.30;;;6.30;;
60867;SDS011;46702;48.370;10.794;2023-12-07T08:02:59;8.65;;;6.45;;
60867;SDS011;46702;48.370;10.794;2023-12-07T08:05:25;8.77;;;5.05;;
60867;SDS011;46702;48.370;10.794;2023-12-07T08:07:51;10.65;;;5.90;;
60867;SDS011;46702;48.370;10.794;2023-12-07T08:10:16;9.15;;;5.65;;
60867;SDS011;46702;48.370;10.794;2023-12-07T08:12:42;8.45;;;6.10;;
60867;SDS011;46702;48.370;10.794;2023-12-07T08:15:09;8.77;;;5.43;;
60867;SDS011;46702;48.370;10.794;2023-12-07T08:17:36;5.40;;;4.83;;
60867;SDS011;46702;48.370;10.794;2023-12-07T08:20:10;8.48;;;5.90;;
60867;SDS011;46702;48.370;10.794;2023-12-07T08:22:36;6.25;;;5.32;;
60867;SDS011;46702;48.370;10.794;2023-12-07T08:25:03;10.00;;;6.80;;
60867;SDS011;46702;48.370;10.794;2023-12-07T08:27:31;10.18;;;5.75;;
60867;SDS011;46702;48.370;10.794;2023-12-07T08:29:58;7.15;;;5.65;;
60867;SDS011;46702;48.370;10.794;2023-12-07T08:32:23;10.38;;;6.38;;
60867;SDS011;46702;48.370;10.794;2023-12-07T08:34:51;8.52;;;5.38;;
60867;SDS011;46702;48.370;10.794;2023-12-07T08:37:17;7.25;;;5.68;;
60867;SDS011;46702;48.370;10.794;2023-12-07T08:39:43;7.90;;;6.07;;
60867;SDS011;46702;48.370;10.794;2023-12-07T08:42:08;5.72;;;4.95;;
60867;SDS011;46702;48.370;10.794;2023-12-07T08:44:34;8.50;;;6.55;;
60867;SDS011;46702;48.370;10.794;2023-12-07T08:47:00;6.20;;;5.18;;
60867;SDS011;46702;48.370;10.794;2023-12-07T08:49:25;7.22;;;6.20;;
60867;SDS011;46702;48.370;10.794;2023-12-07T08:51:51;7.47;;;5.13;;
60867;SDS011;46702;48.370;10.794;2023-12-07T08:54:18;7.45;;;5.75;;
60867;SDS011;46702;48.370;10.794;2023-12-07T08:56:44;5.15;;;4.50;;
60867;SDS011;46702;48.370;10.794;2023-12-07T08:59:10;6.22;;;4.88;;
60867;SDS011;46702;48.370;10.794;2023-12-07T09:01:36;5.30;;;4.80;;
60867;SDS011;46702;48.370;10.794;2023-12-07T09:04:02;7.88;;;4.97;;
60867;SDS011;46702;48.370;10.794;2023-12-07T09:06:28;8.98;;;5.55;;
60867;SDS011;46702;48.370;10.794;2023-12-07T09:08:54;6.93;;;6.10;;
60867;SDS011;46702;48.370;10.794;2023-12-07T09:11:20;10.35;;;6.10;;
60867;SDS011;46702;48.370;10.794;2023-12-07T09:13:46;6.60;;;5.03;;
60867;SDS011;46702;48.370;10.794;2023-12-07T09:16:12;7.45;;;5.57;;
60867;SDS011;46702;48.370;10.794;2023-12-07T09:18:38;9.40;;;6.45;;
60867;SDS011;46702;48.370;10.794;2023-12-07T09:21:04;6.28;;;5.38;;
60867;SDS011;46702;48.370;10.794;2023-12-07T09:23:33;9.52;;;5.63;;
60867;SDS011;46702;48.370;10.794;2023-12-07T09:26:06;11.82;;;6.70;;
60867;SDS011;46702;48.370;10.794;2023-12-07T09:28:41;7.22;;;6.15;;
60867;SDS011;46702;48.370;10.794;2023-12-07T09:31:13;6.85;;;6.03;;
60867;SDS011;46702;48.370;10.794;2023-12-07T09:33:46;7.75;;;6.40;;
60867;SDS011;46702;48.370;10.794;2023-12-07T09:36:16;8.32;;;5.35;;
60867;SDS011;46702;48.370;10.794;2023-12-07T09:38:43;7.47;;;5.57;;
60867;SDS011;46702;48.370;10.794;2023-12-07T09:41:15;7.72;;;5.65;;
60867;SDS011;46702;48.370;10.794;2023-12-07T09:43:48;7.30;;;5.22;;
60867;SDS011;46702;48.370;10.794;2023-12-07T09:46:14;8.70;;;6.10;;
60867;SDS011;46702;48.370;10.794;2023-12-07T09:48:42;13.38;;;7.32;;
60867;SDS011;46702;48.370;10.794;2023-12-07T09:53:36;7.60;;;5.90;;
60867;SDS011;46702;48.370;10.794;2023-12-07T09:58:30;10.18;;;6.90;;
60867;SDS011;46702;48.370;10.794;2023-12-07T10:00:56;9.07;;;7.15;;
60867;SDS011;46702;48.370;10.794;2023-12-07T10:03:22;8.65;;;7.45;;
60867;SDS011;46702;48.370;10.794;2023-12-07T10:05:55;9.13;;;7.15;;
60867;SDS011;46702;48.370;10.794;2023-12-07T10:08:40;10.00;;;7.45;;
60867;SDS011;46702;48.370;10.794;2023-12-07T10:11:07;11.48;;;7.18;;
60867;SDS011;46702;48.370;10.794;2023-12-07T10:13:34;14.93;;;8.18;;
60867;SDS011;46702;48.370;10.794;2023-12-07T10:16:14;12.88;;;7.63;;
60867;SDS011;46702;48.370;10.794;2023-12-07T10:18:41;14.55;;;8.50;;
60867;SDS011;46702;48.370;10.794;2023-12-07T10:21:08;9.88;;;7.68;;
60867;SDS011;46702;48.370;10.794;2023-12-07T10:23:35;12.73;;;9.30;;
60867;SDS011;46702;48.370;10.794;2023-12-07T10:26:02;12.98;;;7.85;;
60867;SDS011;46702;48.370;10.794;2023-12-07T10:28:28;11.43;;;8.65;;
60867;SDS011;46702;48.370;10.794;2023-12-07T10:30:54;11.52;;;7.38;;
60867;SDS011;46702;48.370;10.794;2023-12-07T10:33:21;17.90;;;7.78;;
60867;SDS011;46702;48.370;10.794;2023-12-07T10:35:47;11.07;;;6.97;;
60867;SDS011;46702;48.370;10.794;2023-12-07T10:38:16;8.98;;;6.13;;
60867;SDS011;46702;48.370;10.794;2023-12-07T10:40:43;9.40;;;6.63;;
60867;SDS011;46702;48.370;10.794;2023-12-07T10:43:08;10.23;;;6.28;;
60867;SDS011;46702;48.370;10.794;2023-12-07T10:45:35;12.15;;;7.15;;
60867;SDS011;46702;48.370;10.794;2023-12-07T10:48:02;13.13;;;7.32;;
60867;SDS011;46702;48.370;10.794;2023-12-07T10:50:31;10.55;;;7.07;;
60867;SDS011;46702;48.370;10.794;2023-12-07T10:52:59;12.13;;;6.65;;
60867;SDS011;46702;48.370;10.794;2023-12-07T10:55:38;10.38;;;6.60;;
60867;SDS011;46702;48.370;10.794;2023-12-07T10:58:14;7.95;;;6.60;;
60867;SDS011;46702;48.370;10.794;2023-12-07T11:00:44;10.98;;;6.80;;
60867;SDS011;46702;48.370;10.794;2023-12-07T11:03:14;11.88;;;6.88;;
60867;SDS011;46702;48.370;10.794;2023-12-07T11:05:46;11.02;;;7.13;;
60867;SDS011;46702;48.370;10.794;2023-12-07T11:08:21;11.73;;;6.72;;
60867;SDS011;46702;48.370;10.794;2023-12-07T11:13:39;10.43;;;6.68;;
60867;SDS011;46702;48.370;10.794;2023-12-07T11:16:29;10.25;;;5.75;;
60867;SDS011;46702;48.370;10.794;2023-12-07T11:18:56;12.32;;;7.00;;
60867;SDS011;46702;48.370;10.794;2023-12-07T11:21:22;10.70;;;6.72;;
60867;SDS011;46702;48.370;10.794;2023-12-07T11:23:48;9.07;;;6.07;;
60867;SDS011;46702;48.370;10.794;2023-12-07T11:26:13;10.80;;;6.72;;
60867;SDS011;46702;48.370;10.794;2023-12-07T11:28:39;10.32;;;6.90;;
60867;SDS011;46702;48.370;10.794;2023-12-07T11:31:08;8.23;;;5.88;;
60867;SDS011;46702;48.370;10.794;2023-12-07T11:33:36;9.82;;;6.28;;
60867;SDS011;46702;48.370;10.794;2023-12-07T11:38:35;8.93;;;5.72;;
60867;SDS011;46702;48.370;10.794;2023-12-07T11:41:21;10.35;;;6.70;;
60867;SDS011;46702;48.370;10.794;2023-12-07T11:43:46;11.15;;;6.82;;
60867;SDS011;46702;48.370;10.794;2023-12-07T11:46:12;10.82;;;6.60;;
60867;SDS011;46702;48.370;10.794;2023-12-07T11:48:39;9.75;;;6.85;;
60867;SDS011;46702;48.370;10.794;2023-12-07T11:51:15;11.40;;;6.47;;
60867;SDS011;46702;48.370;10.794;2023-12-07T11:53:42;9.20;;;5.63;;
60867;SDS011;46702;48.370;10.794;2023-12-07T11:56:08;10.68;;;6.93;;
60867;SDS011;46702;48.370;10.794;2023-12-07T11:58:35;5.68;;;4.30;;
60867;SDS011;46702;48.370;10.794;2023-12-07T12:01:01;9.00;;;5.22;;
60867;SDS011;46702;48.370;10.794;2023-12-07T12:03:29;10.52;;;6.28;;
60867;SDS011;46702;48.370;10.794;2023-12-07T12:05:57;13.32;;;6.15;;
60867;SDS011;46702;48.370;10.794;2023-12-07T12:08:23;11.27;;;5.55;;
60867;SDS011;46702;48.370;10.794;2023-12-07T12:10:50;4.20;;;3.78;;
60867;SDS011;46702;48.370;10.794;2023-12-07T12:13:18;4.13;;;3.42;;
60867;SDS011;46702;48.370;10.794;2023-12-07T12:15:44;3.17;;;2.83;;
60867;SDS011;46702;48.370;10.794;2023-12-07T12:18:14;4.93;;;3.20;;
60867;SDS011;46702;48.370;10.794;2023-12-07T12:20:44;3.15;;;2.80;;
60867;SDS011;46702;48.370;10.794;2023-12-07T12:23:11;2.75;;;2.30;;
60867;SDS011;46702;48.370;10.794;2023-12-07T12:25:36;2.45;;;1.98;;
60867;SDS011;46702;48.370;10.794;2023-12-07T12:28:03;2.72;;;2.17;;
60867;SDS011;46702;48.370;10.794;2023-12-07T12:30:30;2.00;;;1.90;;
60867;SDS011;46702;48.370;10.794;2023-12-07T12:32:57;2.83;;;2.03;;
60867;SDS011;46702;48.370;10.794;2023-12-07T12:35:25;2.07;;;1.97;;
60867;SDS011;46702;48.370;10.794;2023-12-07T12:37:50;2.00;;;1.90;;
60867;SDS011;46702;48.370;10.794;2023-12-07T12:40:17;3.53;;;2.47;;
60867;SDS011;46702;48.370;10.794;2023-12-07T12:42:51;2.70;;;1.90;;
60867;SDS011;46702;48.370;10.794;2023-12-07T12:45:18;2.72;;;2.45;;
60867;SDS011;46702;48.370;10.794;2023-12-07T12:47:45;3.28;;;2.92;;
60867;SDS011;46702;48.370;10.794;2023-12-07T12:50:12;3.03;;;2.77;;
60867;SDS011;46702;48.370;10.794;2023-12-07T12:53:01;3.30;;;2.80;;
60867;SDS011;46702;48.370;10.794;2023-12-07T12:55:35;2.42;;;2.20;;
60867;SDS011;46702;48.370;10.794;2023-12-07T12:58:02;2.47;;;2.28;;
60867;SDS011;46702;48.370;10.794;2023-12-07T13:00:29;3.17;;;2.65;;
60867;SDS011;46702;48.370;10.794;2023-12-07T13:02:57;3.80;;;2.90;;
60867;SDS011;46702;48.370;10.794;2023-12-07T13:05:24;4.00;;;3.17;;
60867;SDS011;46702;48.370;10.794;2023-12-07T13:07:50;4.05;;;3.08;;
60867;SDS011;46702;48.370;10.794;2023-12-07T13:10:16;5.18;;;3.35;;
60867;SDS011;46702;48.370;10.794;2023-12-07T13:12:42;5.85;;;3.75;;
60867;SDS011;46702;48.370;10.794;2023-12-07T13:15:09;4.47;;;3.53;;
60867;SDS011;46702;48.370;10.794;2023-12-07T13:17:35;5.57;;;3.08;;
60867;SDS011;46702;48.370;10.794;2023-12-07T13:20:01;10.55;;;3.63;;
60867;SDS011;46702;48.370;10.794;2023-12-07T13:22:26;15.15;;;7.45;;
60867;SDS011;46702;48.370;10.794;2023-12-07T13:24:52;7.65;;;4.50;;
60867;SDS011;46702;48.370;10.794;2023-12-07T13:27:19;7.22;;;3.85;;
60867;SDS011;46702;48.370;10.794;2023-12-07T13:29:45;4.82;;;3.00;;
60867;SDS011;46702;48.370;10.794;2023-12-07T13:32:10;5.68;;;4.38;;
60867;SDS011;46702;48.370;10.794;2023-12-07T13:34:36;3.97;;;3.25;;
60867;SDS011;46702;48.370;10.794;2023-12-07T13:37:03;2.83;;;2.60;;
60867;SDS011;46702;48.370;10.794;2023-12-07T13:39:30;4.63;;;2.80;;
60867;SDS011;46702;48.370;10.794;2023-12-07T13:41:56;5.63;;;4.20;;
60867;SDS011;46702;48.370;10.794;2023-12-07T13:44:21;4.80;;;3.78;;
60867;SDS011;46702;48.370;10.794;2023-12-07T13:46:49;3.83;;;3.08;;
60867;SDS011;46702;48.370;10.794;2023-12-07T13:49:14;4.60;;;3.28;;
60867;SDS011;46702;48.370;10.794;2023-12-07T13:51:40;5.60;;;3.05;;
60867;SDS011;46702;48.370;10.794;2023-12-07T13:54:07;3.58;;;2.97;;
60867;SDS011;46702;48.370;10.794;2023-12-07T13:56:33;7.60;;;3.95;;
60867;SDS011;46702;48.370;10.794;2023-12-07T13:59:00;3.80;;;3.20;;
60867;SDS011;46702;48.370;10.794;2023-12-07T14:01:26;3.53;;;3.08;;
60867;SDS011;46702;48.370;10.794;2023-12-07T14:03:51;3.60;;;2.60;;
60867;SDS011;46702;48.370;10.794;2023-12-07T14:06:21;9.20;;;5.10;;
60867;SDS011;46702;48.370;10.794;2023-12-07T14:08:48;4.18;;;2.75;;
60867;SDS011;46702;48.370;10.794;2023-12-07T14:11:14;22.10;;;11.52;;
60867;SDS011;46702;48.370;10.794;2023-12-07T14:13:41;5.68;;;3.13;;
60867;SDS011;46702;48.370;10.794;2023-12-07T14:16:06;4.82;;;3.65;;
60867;SDS011;46702;48.370;10.794;2023-12-07T14:18:33;3.75;;;3.42;;
60867;SDS011;46702;48.370;10.794;2023-12-07T14:20:59;3.97;;;3.58;;
60867;SDS011;46702;48.370;10.794;2023-12-07T14:23:25;7.00;;;3.60;;
60867;SDS011;46702;48.370;10.794;2023-12-07T14:25:51;4.57;;;3.13;;
60867;SDS011;46702;48.370;10.794;2023-12-07T14:28:17;5.25;;;3.70;;
60867;SDS011;46702;48.370;10.794;2023-12-07T14:30:44;10.00;;;6.03;;
60867;SDS011;46702;48.370;10.794;2023-12-07T14:33:09;5.85;;;3.97;;
60867;SDS011;46702;48.370;10.794;2023-12-07T14:35:35;5.10;;;3.85;;
60867;SDS011;46702;48.370;10.794;2023-12-07T14:38:00;5.70;;;3.90;;
60867;SDS011;46702;48.370;10.794;2023-12-07T14:40:27;5.30;;;3.78;;
60867;SDS011;46702;48.370;10.794;2023-12-07T14:42:52;7.57;;;5.75;;
60867;SDS011;46702;48.370;10.794;2023-12-07T14:45:18;3.95;;;3.55;;
60867;SDS011;46702;48.370;10.794;2023-12-07T14:47:45;10.57;;;3.30;;
60867;SDS011;46702;48.370;10.794;2023-12-07T14:50:11;6.07;;;3.88;;